Time;durP1;ratioP1;P1;durP2;ratioP2;P2;SDS_P1;SDS_P2;PMS_P1;PMS_P2;Temp;Humidity;BMP_temperature;BMP_pressure;BME280_temperature;BME280_humidity;BME280_pressure;Samples;Min_cycle;Max_cycle;Signal;HPM_P1;HPM_P2
2022/09/26 00:00:44;;;;;;;;;1.00;1.00;;;;;15.92;51.29;100877.25;5096578;27;46174;-67
2022/09/26 00:03:10;;;;;;;;;1.33;1.33;;;;;16.25;51.67;100941.44;5113228;27;45508;-67
2022/09/26 00:05:37;;;;;;;;;0.00;0.00;;;;;15.75;51.72;100864.91;5115977;27;45254;-68
2022/09/26 00:08:05;;;;;;;;;2.00;1.67;;;;;16.20;51.75;100938.44;5117591;27;45473;-68
2022/09/26 00:10:30;;;;;;;;;1.00;1.00;;;;;16.08;51.98;100921.91;5120427;27;45793;-67
2022/09/26 00:12:56;;;;;;;;;1.00;1.00;;;;;15.95;51.79;100898.34;5120580;27;45382;-68
2022/09/26 00:15:22;;;;;;;;;0.33;0.33;;;;;16.15;52.09;100914.00;5119236;27;45449;-67
2022/09/26 00:17:47;;;;;;;;;2.00;1.00;;;;;15.94;52.12;100880.56;5121329;27;45500;-68
2022/09/26 00:20:13;;;;;;;;;1.67;1.00;;;;;16.17;52.29;100928.06;5120351;27;46420;-69
2022/09/26 00:22:38;;;;;;;;;1.33;1.33;;;;;16.18;52.33;100924.38;5120697;27;45446;-68
2022/09/26 00:25:04;;;;;;;;;3.00;2.00;;;;;16.17;52.37;100914.66;5120881;27;45203;-67
2022/09/26 00:27:29;;;;;;;;;2.67;1.67;;;;;16.05;52.32;100903.50;5120580;27;45483;-68
2022/09/26 00:29:54;;;;;;;;;1.33;1.00;;;;;16.12;52.54;100909.81;5120342;27;46292;-67
2022/09/26 00:32:20;;;;;;;;;2.67;1.67;;;;;15.93;52.82;100867.34;5120268;27;49402;-67
2022/09/26 00:34:45;;;;;;;;;2.00;1.00;;;;;16.00;52.67;100879.88;5119204;27;45494;-67
2022/09/26 00:37:10;;;;;;;;;2.00;2.00;;;;;16.10;52.75;100885.84;5119075;27;45355;-67
2022/09/26 00:39:36;;;;;;;;;0.00;0.00;;;;;16.12;52.55;100891.03;5120157;27;46178;-67
2022/09/26 00:42:01;;;;;;;;;1.00;1.00;;;;;16.07;52.75;100891.56;5120289;27;45226;-68
2022/09/26 00:44:55;;;;;;;;;1.00;1.00;;;;;16.09;52.84;100881.50;5120662;27;45283;-67
2022/09/26 00:47:39;;;;;;;;;2.00;1.00;;;;;16.09;52.53;100884.19;5112353;27;45337;-68
2022/09/26 00:50:14;;;;;;;;;1.00;1.00;;;;;16.05;52.70;100888.25;5118740;27;47669;-67
2022/09/26 00:53:00;;;;;;;;;2.00;1.33;;;;;15.95;52.52;100866.16;5119799;27;45222;-68
2022/09/26 00:55:35;;;;;;;;;1.00;1.00;;;;;16.03;52.44;100884.91;5120347;27;45247;-67
2022/09/26 00:58:15;;;;;;;;;1.00;1.00;;;;;15.89;52.59;100866.88;5136442;27;45507;-66
2022/09/26 01:00:43;;;;;;;;;1.00;1.00;;;;;15.93;52.56;100868.19;5119507;27;45703;-67
2022/09/26 01:03:09;;;;;;;;;1.00;1.00;;;;;15.95;52.69;100868.84;5104404;27;45191;-67
2022/09/26 01:05:36;;;;;;;;;0.00;0.00;;;;;15.55;52.70;100800.16;5099527;27;45288;-67
2022/09/26 01:08:04;;;;;;;;;1.00;1.00;;;;;15.96;52.95;100862.47;5081002;27;45406;-66
2022/09/26 01:10:31;;;;;;;;;1.00;1.00;;;;;15.92;52.76;100861.16;5107737;27;46452;-68
2022/09/26 01:13:00;;;;;;;;;3.00;2.00;;;;;15.19;52.91;100735.50;5099409;27;45485;-67
2022/09/26 01:15:25;;;;;;;;;1.67;1.67;;;;;15.94;52.68;100867.16;5081200;27;45414;-67
2022/09/26 01:17:51;;;;;;;;;1.00;1.00;;;;;15.82;52.82;100842.63;5089573;27;45690;-67
2022/09/26 01:20:33;;;;;;;;;2.33;2.00;;;;;15.47;52.98;100794.84;5098248;27;45801;-67
2022/09/26 01:23:36;;;;;;;;;3.00;2.00;;;;;15.89;52.79;100866.88;5091398;27;45345;-67
2022/09/26 01:26:39;;;;;;;;;1.33;1.00;;;;;15.91;53.08;100872.88;5091526;27;45557;-67
2022/09/26 01:29:42;;;;;;;;;1.00;1.00;;;;;15.87;53.28;100862.69;5099632;27;45423;-69
2022/09/26 01:35:50;;;;;;;;;1.67;1.00;;;;;15.81;53.67;100861.53;5091410;27;45325;-67
2022/09/26 01:38:25;;;;;;;;;1.00;1.00;;;;;15.81;53.42;100859.69;5086172;27;45741;-70
2022/09/26 01:41:29;;;;;;;;;4.00;1.00;;;;;15.80;53.66;100851.81;5078920;27;45444;-66
2022/09/26 01:44:17;;;;;;;;;1.00;1.00;;;;;15.78;53.28;100851.16;5098787;27;45838;-67
2022/09/26 01:47:06;;;;;;;;;3.00;1.67;;;;;15.74;53.67;100847.16;5098628;27;45288;-67
2022/09/26 01:49:44;;;;;;;;;1.00;1.00;;;;;15.75;53.48;100849.66;5099266;27;45568;-67
2022/09/26 01:52:24;;;;;;;;;1.00;1.00;;;;;15.65;53.22;100832.16;5081050;27;45643;-68
2022/09/26 01:55:11;;;;;;;;;1.00;1.00;;;;;15.62;53.12;100817.25;5097748;27;45755;-68
2022/09/26 01:57:43;;;;;;;;;2.00;1.00;;;;;15.55;53.20;100793.97;5098680;27;45366;-69
2022/09/26 02:00:11;;;;;;;;;1.00;1.00;;;;;15.70;52.78;100821.72;5098476;27;45578;-67
2022/09/26 02:02:41;;;;;;;;;4.00;1.00;;;;;15.75;52.87;100827.38;5111197;27;45279;-70
2022/09/26 02:05:14;;;;;;;;;1.00;1.00;;;;;15.60;52.83;100802.34;5117477;27;45647;-68
2022/09/26 02:07:54;;;;;;;;;1.00;1.00;;;;;15.64;52.60;100804.50;5119326;27;45384;-68
2022/09/26 02:10:28;;;;;;;;;0.67;0.67;;;;;15.64;52.55;100792.97;5117517;27;45442;-69
2022/09/26 02:13:02;;;;;;;;;1.33;1.33;;;;;15.13;52.75;100726.34;5136114;27;45302;-66
2022/09/26 02:15:33;;;;;;;;;2.00;2.00;;;;;15.66;52.39;100807.84;5118513;27;46767;-65
2022/09/26 02:18:25;;;;;;;;;0.00;0.00;;;;;15.64;52.48;100803.69;5118972;27;45228;-66
2022/09/26 02:21:01;;;;;;;;;2.00;2.00;;;;;15.07;52.20;100704.78;5112159;27;45439;-65
2022/09/26 02:23:26;;;;;;;;;0.67;0.00;;;;;15.64;52.23;100792.97;5117472;27;45529;-65
2022/09/26 02:25:52;;;;;;;;;4.00;1.00;;;;;15.43;52.11;100766.75;5118772;27;46684;-66
2022/09/26 02:28:18;;;;;;;;;0.67;0.67;;;;;15.48;52.08;100783.94;5117202;27;45457;-65
2022/09/26 02:30:46;;;;;;;;;0.67;0.67;;;;;15.46;52.47;100783.28;5118507;27;45458;-64
2022/09/26 02:33:12;;;;;;;;;2.67;1.00;;;;;15.41;52.20;100766.03;5117124;27;45291;-64
2022/09/26 02:35:56;;;;;;;;;1.00;1.00;;;;;15.45;52.37;100768.22;5118195;27;45517;-65
2022/09/26 02:38:30;;;;;;;;;2.00;0.33;;;;;15.49;52.36;100774.06;5118286;27;46844;-65
2022/09/26 02:41:13;;;;;;;;;2.00;1.00;;;;;15.51;52.67;100770.19;5118438;27;45495;-64
2022/09/26 02:44:15;;;;;;;;;1.00;1.00;;;;;15.53;52.54;100770.84;5118641;27;45466;-66
2022/09/26 02:46:59;;;;;;;;;1.00;1.00;;;;;15.47;52.67;100760.84;5118095;27;47040;-67
2022/09/26 02:49:51;;;;;;;;;1.00;1.00;;;;;15.46;52.83;100743.09;5112174;27;45291;-66
2022/09/26 02:52:38;;;;;;;;;0.00;0.00;;;;;15.32;52.99;100734.97;5118672;27;45244;-65
2022/09/26 02:55:31;;;;;;;;;1.00;1.00;;;;;15.43;52.72;100732.75;5118506;27;45557;-65
2022/09/26 02:58:26;;;;;;;;;1.00;1.00;;;;;15.47;52.58;100728.69;5117890;27;45869;-65
2022/09/26 03:01:09;;;;;;;;;1.00;0.67;;;;;15.51;52.61;100723.81;5118132;27;45507;-66
2022/09/26 03:03:48;;;;;;;;;1.67;1.67;;;;;15.31;52.67;100679.72;5091234;27;45510;-65
2022/09/26 03:06:18;;;;;;;;;3.33;1.00;;;;;15.51;52.44;100716.59;5097693;27;45374;-66
2022/09/26 03:08:46;;;;;;;;;2.33;0.67;;;;;15.48;52.51;100708.94;5097502;27;45814;-65
2022/09/26 03:11:19;;;;;;;;;1.00;1.00;;;;;14.33;52.60;100524.94;5096988;27;45461;-66
2022/09/26 03:13:46;;;;;;;;;1.00;1.00;;;;;15.46;52.68;100708.28;5097762;27;45574;-65
2022/09/26 03:16:13;;;;;;;;;0.67;0.67;;;;;15.46;52.61;100689.53;5097839;27;45386;-66
2022/09/26 03:19:21;;;;;;;;;4.00;1.00;;;;;15.48;52.70;100684.81;5097175;27;46330;-65
2022/09/26 03:21:47;;;;;;;;;1.00;1.00;;;;;15.44;52.66;100667.44;5089039;27;45250;-65
2022/09/26 03:24:13;;;;;;;;;1.00;1.00;;;;;15.33;52.64;100650.91;5097253;27;45255;-65
2022/09/26 03:26:40;;;;;;;;;1.00;1.00;;;;;15.23;52.87;100635.09;5096974;27;45240;-65
2022/09/26 03:29:06;;;;;;;;;4.33;4.33;;;;;15.25;53.01;100642.94;5096911;27;45611;-65
2022/09/26 03:31:32;;;;;;;;;1.00;1.00;;;;;15.43;52.71;100672.97;5096983;27;45347;-65
2022/09/26 03:33:57;;;;;;;;;1.00;1.00;;;;;15.31;52.80;100642.22;5097446;27;45322;-65
2022/09/26 03:36:23;;;;;;;;;1.00;1.00;;;;;15.41;52.71;100654.38;5097348;27;45200;-67
2022/09/26 03:38:48;;;;;;;;;2.00;1.00;;;;;14.82;52.65;100559.53;5096623;27;46391;-65
2022/09/26 03:41:13;;;;;;;;;1.00;1.00;;;;;15.35;52.93;100648.88;5096461;27;45395;-65
2022/09/26 03:43:42;;;;;;;;;3.67;1.00;;;;;15.19;53.36;100625.72;5097380;27;45232;-66
2022/09/26 03:46:10;;;;;;;;;1.00;1.00;;;;;15.24;53.48;100647.47;5100318;27;45495;-65
2022/09/26 03:48:35;;;;;;;;;2.00;2.00;;;;;15.10;53.83;100616.06;5100179;27;46137;-66
2022/09/26 03:51:02;;;;;;;;;1.00;1.00;;;;;15.11;54.01;100620.41;5081511;27;45276;-65
2022/09/26 03:53:31;;;;;;;;;1.67;0.67;;;;;15.17;53.76;100630.41;5100587;27;45389;-64
2022/09/26 03:56:05;;;;;;;;;2.00;1.00;;;;;15.12;53.77;100616.72;5100214;27;45528;-65
2022/09/26 03:58:31;;;;;;;;;1.67;1.00;;;;;15.20;53.62;100624.69;5100183;27;46581;-64
2022/09/26 04:01:06;;;;;;;;;0.00;0.00;;;;;15.18;53.22;100626.72;5081527;27;46117;-65
2022/09/26 04:03:33;;;;;;;;;0.33;0.33;;;;;15.16;53.76;100620.72;5100242;27;45346;-64
2022/09/26 04:05:59;;;;;;;;;0.67;0.67;;;;;15.20;53.24;100619.34;5100240;27;45619;-66
2022/09/26 04:08:24;;;;;;;;;1.00;1.00;;;;;15.15;53.27;100624.41;5099725;27;46450;-65
2022/09/26 04:10:50;;;;;;;;;2.00;1.00;;;;;15.19;53.26;100617.69;5081726;27;46082;-64
2022/09/26 04:13:15;;;;;;;;;1.67;1.67;;;;;15.11;53.12;100599.00;5100317;27;45249;-65
2022/09/26 04:15:40;;;;;;;;;1.33;0.67;;;;;15.21;52.87;100605.78;5100290;27;45570;-66
2022/09/26 04:18:06;;;;;;;;;1.67;1.00;;;;;15.08;52.74;100584.13;5099611;27;47139;-65
2022/09/26 04:20:31;;;;;;;;;0.00;0.00;;;;;15.20;52.93;100584.53;5081587;27;45539;-65
2022/09/26 04:22:56;;;;;;;;;1.00;1.00;;;;;15.11;52.81;100565.03;5099768;27;45208;-66
2022/09/26 04:25:22;;;;;;;;;0.00;0.00;;;;;14.66;52.67;100485.53;5100260;27;45450;-66
2022/09/26 04:27:47;;;;;;;;;3.00;0.00;;;;;15.09;52.51;100542.94;5099339;27;46549;-65
2022/09/26 04:30:13;;;;;;;;;0.00;0.00;;;;;15.29;52.20;100570.09;5080116;27;70493;-66
2022/09/26 04:32:38;;;;;;;;;1.00;1.00;;;;;15.30;52.01;100558.34;5099957;27;45399;-65
2022/09/26 04:35:04;;;;;;;;;0.00;0.00;;;;;15.19;52.34;100542.69;5099581;27;45390;-64
2022/09/26 04:37:29;;;;;;;;;0.67;0.67;;;;;15.25;52.62;100547.34;5099739;27;46956;-65
2022/09/26 04:39:56;;;;;;;;;1.00;0.00;;;;;15.17;52.57;100536.69;5099857;27;45419;-65
2022/09/26 04:42:24;;;;;;;;;2.00;2.00;;;;;15.23;52.85;100543.19;5099955;27;45516;-65
2022/09/26 04:44:49;;;;;;;;;1.33;1.33;;;;;14.69;52.30;100438.84;5100178;27;45145;-65
2022/09/26 04:47:14;;;;;;;;;2.00;2.00;;;;;15.33;53.25;100543.78;5099102;27;45570;-72
2022/09/26 04:49:39;;;;;;;;;1.00;1.00;;;;;15.30;52.75;100525.38;5099450;27;45219;-65
2022/09/26 04:52:05;;;;;;;;;1.00;1.00;;;;;15.29;52.39;100521.03;5099687;27;45749;-65
2022/09/26 04:54:30;;;;;;;;;0.00;0.00;;;;;15.15;52.40;100499.38;5099651;27;45208;-65
2022/09/26 04:56:58;;;;;;;;;1.00;1.00;;;;;15.23;52.39;100517.25;5099285;27;46468;-67
2022/09/26 04:59:24;;;;;;;;;1.00;1.00;;;;;15.27;52.13;100515.88;5099140;27;45461;-66
2022/09/26 05:01:49;;;;;;;;;1.33;1.33;;;;;15.12;52.21;100498.91;5099362;27;45458;-65
2022/09/26 05:04:14;;;;;;;;;1.00;1.00;;;;;15.23;52.60;100517.25;5099703;27;45370;-65
2022/09/26 05:06:40;;;;;;;;;2.00;1.00;;;;;15.23;52.43;100511.91;5098789;27;46696;-66
2022/09/26 05:09:05;;;;;;;;;0.00;0.00;;;;;14.54;52.45;100412.03;5099437;27;45359;-65
2022/09/26 05:11:31;;;;;;;;;1.00;1.00;;;;;15.16;52.45;100501.03;5098885;27;45317;-65
2022/09/26 05:13:57;;;;;;;;;1.00;1.00;;;;;14.90;52.70;100453.22;5099362;27;45471;-65
2022/09/26 05:16:22;;;;;;;;;0.00;0.00;;;;;15.08;52.51;100484.22;5097975;27;46779;-70
2022/09/26 05:18:50;;;;;;;;;3.00;1.33;;;;;15.08;52.66;100481.53;5097580;27;45437;-65
2022/09/26 05:21:15;;;;;;;;;1.67;1.00;;;;;15.11;52.94;100465.13;5099262;27;45455;-66
2022/09/26 05:26:30;;;;;;;;;1.33;1.33;;;;;14.99;53.79;100454.00;5098764;27;45466;-66
2022/09/26 05:29:03;;;;;;;;;0.00;0.00;;;;;14.99;53.90;100450.47;5098700;27;45389;-66
2022/09/26 05:31:31;;;;;;;;;1.00;1.00;;;;;15.01;54.11;100453.81;5097271;27;45602;-66
2022/09/26 05:33:56;;;;;;;;;1.00;1.00;;;;;14.94;53.83;100444.84;5092222;27;45675;-67
2022/09/26 05:36:23;;;;;;;;;1.33;0.33;;;;;14.94;54.50;100444.84;5098358;27;46345;-66
2022/09/26 05:38:49;;;;;;;;;1.67;1.67;;;;;14.73;54.66;100422.25;5079783;27;45382;-66
2022/09/26 05:41:15;;;;;;;;;0.00;0.00;;;;;14.83;54.64;100443.44;5098868;27;45308;-66
2022/09/26 05:43:40;;;;;;;;;0.00;0.00;;;;;14.82;54.77;100455.16;5098825;27;45308;-65
2022/09/26 05:46:07;;;;;;;;;0.33;0.33;;;;;14.66;55.04;100423.97;5097979;27;46423;-64
2022/09/26 05:48:35;;;;;;;;;1.33;1.33;;;;;14.72;55.03;100414.41;5093638;27;45256;-65
2022/09/26 05:51:02;;;;;;;;;0.67;0.67;;;;;13.84;55.00;100273.09;5095984;27;46801;-65
2022/09/26 05:53:27;;;;;;;;;1.67;0.33;;;;;14.88;54.99;100439.19;5098274;27;45578;-66
2022/09/26 05:55:53;;;;;;;;;3.00;2.00;;;;;14.90;54.56;100437.19;5098212;27;49832;-65
2022/09/26 05:58:18;;;;;;;;;2.00;1.00;;;;;14.86;54.39;100418.97;5097719;27;61629;-64
2022/09/26 06:00:46;;;;;;;;;2.67;0.67;;;;;14.88;54.88;100433.84;5080032;27;45282;-65
2022/09/26 06:03:13;;;;;;;;;0.67;0.67;;;;;14.88;54.67;100427.66;5114854;27;45418;-66
2022/09/26 06:05:38;;;;;;;;;0.67;0.67;;;;;14.90;54.70;100426.47;5118963;27;45618;-65
2022/09/26 06:08:04;;;;;;;;;3.33;2.67;;;;;14.74;54.75;100393.66;5117824;27;45364;-64
2022/09/26 06:10:29;;;;;;;;;1.33;1.33;;;;;14.89;54.28;100416.78;5099740;27;45290;-66
2022/09/26 06:12:54;;;;;;;;;2.00;2.00;;;;;15.04;54.35;100418.66;5117846;27;45275;-66
2022/09/26 06:15:20;;;;;;;;;1.67;1.00;;;;;14.89;54.21;100403.38;5118166;27;45676;-65
2022/09/26 06:17:47;;;;;;;;;2.33;2.00;;;;;14.58;54.19;100351.78;5099415;27;45927;-64
2022/09/26 06:20:12;;;;;;;;;1.00;1.00;;;;;13.59;54.49;100190.41;5099778;27;45516;-66
2022/09/26 06:22:42;;;;;;;;;0.67;0.67;;;;;14.54;54.40;100339.78;5119017;27;45516;-75
2022/09/26 06:25:08;;;;;;;;;1.00;1.00;;;;;15.02;54.54;100429.56;5117878;27;46618;-66
2022/09/26 06:27:37;;;;;;;;;2.00;2.00;;;;;14.95;54.54;100412.53;5118813;27;45427;-68
2022/09/26 06:30:06;;;;;;;;;2.00;2.00;;;;;14.98;54.32;100411.34;5098927;27;45547;-66
2022/09/26 06:32:32;;;;;;;;;2.67;1.00;;;;;14.89;54.41;100395.34;5116389;27;45525;-66
2022/09/26 06:34:57;;;;;;;;;2.33;2.00;;;;;14.69;54.51;100348.69;5122108;27;47522;-66
2022/09/26 06:37:22;;;;;;;;;2.00;2.00;;;;;14.86;54.86;100389.53;5117511;27;45369;-65
2022/09/26 06:39:48;;;;;;;;;1.33;1.33;;;;;14.58;54.64;100335.75;5099163;27;45505;-68
2022/09/26 06:42:13;;;;;;;;;2.00;2.00;;;;;15.01;54.69;100405.63;5117999;27;45750;-66
2022/09/26 06:44:39;;;;;;;;;2.33;2.00;;;;;15.02;54.54;100410.00;5116947;27;46362;-69
2022/09/26 06:47:04;;;;;;;;;3.00;2.00;;;;;14.84;54.93;100375.50;5117496;27;45447;-67
2022/09/26 06:49:29;;;;;;;;;3.00;3.00;;;;;14.88;54.59;100380.31;5116480;27;45432;-67
2022/09/26 06:51:55;;;;;;;;;2.00;1.00;;;;;15.03;54.60;100393.75;5046127;27;46121;-66
2022/09/26 06:54:20;;;;;;;;;1.67;1.67;;;;;14.95;54.54;100363.53;5035809;28;46456;-66
2022/09/26 06:56:46;;;;;;;;;1.00;0.33;;;;;14.73;55.03;100338.47;5036291;28;45439;-65
2022/09/26 06:59:11;;;;;;;;;1.33;0.67;;;;;15.02;55.03;100377.88;5036977;28;45413;-67
2022/09/26 07:01:37;;;;;;;;;1.00;1.00;;;;;15.08;54.88;100375.28;5037017;28;45506;-67
2022/09/26 07:04:03;;;;;;;;;0.00;0.00;;;;;15.15;54.71;100378.88;5042239;28;45688;-65
2022/09/26 07:06:29;;;;;;;;;7.67;7.33;;;;;15.19;54.96;100376.66;5036043;28;45294;-66
2022/09/26 07:08:55;;;;;;;;;4.00;2.67;;;;;15.22;54.24;100365.63;5041900;28;45442;-66
2022/09/26 07:11:21;;;;;;;;;2.00;2.00;;;;;15.13;54.70;100339.91;5035738;28;45569;-67
2022/09/26 07:13:46;;;;;;;;;2.67;2.00;;;;;14.84;53.93;100266.63;5036293;28;45866;-66
2022/09/26 07:16:14;;;;;;;;;2.00;1.00;;;;;15.22;53.38;100304.03;5036403;28;45188;-67
2022/09/26 07:18:40;;;;;;;;;0.67;0.67;;;;;15.48;53.01;100324.97;5035235;28;45398;-68
2022/09/26 07:21:06;;;;;;;;;1.00;1.00;;;;;15.63;53.63;100347.25;5036153;28;45325;-66
2022/09/26 07:23:31;;;;;;;;;3.00;3.00;;;;;15.67;52.87;100337.00;5035890;28;46577;-68
2022/09/26 07:25:57;;;;;;;;;2.00;2.00;;;;;15.69;52.50;100322.38;5041229;28;45369;-67
2022/09/26 07:28:23;;;;;;;;;2.00;2.00;;;;;15.73;52.46;100321.00;5051632;28;45374;-66
2022/09/26 07:30:48;;;;;;;;;3.00;3.00;;;;;15.49;52.05;100284.59;5052192;28;45515;-67
2022/09/26 07:33:14;;;;;;;;;1.00;1.00;;;;;15.78;52.12;100331.13;5042339;28;45556;-65
2022/09/26 07:35:41;;;;;;;;;3.00;1.33;;;;;15.78;52.20;100312.38;5035863;28;45211;-67
2022/09/26 07:38:06;;;;;;;;;1.00;1.00;;;;;15.75;52.19;100307.41;5036959;28;45541;-70
2022/09/26 07:40:31;;;;;;;;;1.00;0.67;;;;;15.13;52.32;100214.06;5041726;28;45355;-66
2022/09/26 07:43:00;;;;;;;;;3.67;3.33;;;;;15.52;52.17;100259.28;5036075;28;45445;-67
2022/09/26 07:50:57;;;;;;;;;3.00;1.33;;;;;15.75;52.17;100285.94;5035701;28;46103;-65
2022/09/26 07:53:26;;;;;;;;;1.33;1.33;;;;;15.68;52.26;100290.41;5035493;28;46776;-66
2022/09/26 07:56:05;;;;;;;;;1.00;1.00;;;;;15.40;52.20;100234.81;5039652;28;45557;-67
2022/09/26 07:58:38;;;;;;;;;1.00;1.00;;;;;15.74;52.14;100276.25;5035797;28;45257;-67
2022/09/26 08:01:05;;;;;;;;;1.00;1.00;;;;;15.84;52.29;100271.44;5035697;28;45253;-67
2022/09/26 08:03:30;;;;;;;;;2.00;2.00;;;;;15.78;51.97;100258.78;5046512;28;45953;-66
2022/09/26 08:05:59;;;;;;;;;2.00;1.00;;;;;15.73;52.28;100274.59;5034572;28;45484;-67
2022/09/26 08:08:24;;;;;;;;;1.67;1.00;;;;;15.82;52.03;100287.72;5049698;28;45257;-67
2022/09/26 08:10:50;;;;;;;;;2.00;2.00;;;;;15.94;51.94;100277.31;5046907;28;45510;-66
2022/09/26 08:13:15;;;;;;;;;1.67;1.67;;;;;15.88;51.66;100251.25;5047622;28;46790;-67
2022/09/26 08:15:41;;;;;;;;;0.33;0.33;;;;;16.00;51.21;100275.69;5038889;28;45490;-67
2022/09/26 08:18:06;;;;;;;;;1.67;1.00;;;;;16.05;51.55;100275.97;5043874;28;45498;-67
2022/09/26 08:20:32;;;;;;;;;2.00;2.00;;;;;16.08;51.52;100270.22;5050092;28;45288;-67
2022/09/26 08:22:58;;;;;;;;;2.67;2.67;;;;;16.03;51.12;100245.84;5045973;28;46972;-67
2022/09/26 08:25:23;;;;;;;;;1.00;1.00;;;;;15.67;51.15;100197.66;5046388;28;45468;-66
2022/09/26 08:27:49;;;;;;;;;1.67;1.67;;;;;16.11;51.19;100241.19;5036606;28;45492;-69
2022/09/26 08:30:15;;;;;;;;;4.00;3.00;;;;;16.29;50.68;100229.16;5049276;28;45353;-68
2022/09/26 08:32:40;;;;;;;;;2.67;2.00;;;;;16.49;50.32;100240.88;5059095;28;46254;-67
2022/09/26 08:35:09;;;;;;;;;3.00;3.00;;;;;16.50;50.25;100226.44;5073907;28;46045;-66
2022/09/26 08:37:34;;;;;;;;;1.33;1.33;;;;;16.11;49.88;100138.44;5044699;28;45344;-67
2022/09/26 08:40:00;;;;;;;;;3.00;2.00;;;;;17.03;49.54;100240.25;5048717;28;45237;-66
2022/09/26 08:42:41;;;;;;;;;1.67;1.67;;;;;17.37;48.71;100238.53;5058349;28;46513;-66
2022/09/26 08:48:14;;;;;;;;;1.67;1.00;;;;;17.02;47.65;100128.50;5055273;28;45450;-67
2022/09/26 08:50:49;;;;;;;;;2.67;2.67;;;;;17.66;47.25;100214.06;5044209;28;45573;-67
2022/09/26 08:53:19;;;;;;;;;2.33;2.33;;;;;17.43;46.79;100146.38;5054302;28;45702;-65
2022/09/26 08:55:48;;;;;;;;;3.33;2.00;;;;;17.98;46.59;100228.59;5038185;28;45546;-66
2022/09/26 08:58:21;;;;;;;;;3.00;3.00;;;;;17.90;46.69;100201.91;5038759;28;45467;-65
2022/09/26 09:00:53;;;;;;;;;0.67;0.67;;;;;17.80;46.14;100186.16;5021252;28;45422;-67
2022/09/26 09:03:33;;;;;;;;;2.00;1.00;;;;;17.86;46.32;100196.13;5049385;28;45485;-66
2022/09/26 09:06:04;;;;;;;;;2.00;2.00;;;;;17.77;46.49;100161.56;5046862;28;45322;-69
2022/09/26 09:08:42;;;;;;;;;3.33;1.00;;;;;18.06;46.30;100189.94;5036151;28;45565;-66
2022/09/26 09:11:25;;;;;;;;;2.00;2.00;;;;;18.18;45.95;100182.88;5021039;28;45411;-68
2022/09/26 09:13:53;;;;;;;;;3.67;2.33;;;;;18.31;45.60;100174.81;5053035;28;46289;-68
2022/09/26 09:16:43;;;;;;;;;1.67;1.67;;;;;18.47;44.85;100168.19;5030809;28;45452;-67
2022/09/26 09:19:26;;;;;;;;;1.00;1.00;;;;;18.54;44.70;100148.28;5057041;28;45470;-68
2022/09/26 09:22:25;;;;;;;;;2.00;2.00;;;;;18.77;44.23;100149.72;5039225;28;45321;-67
2022/09/26 09:25:04;;;;;;;;;3.67;1.00;;;;;18.90;43.01;100106.56;5041240;28;46912;-66
2022/09/26 09:27:41;;;;;;;;;2.00;2.00;;;;;19.31;43.07;100134.97;5046706;28;45341;-66
2022/09/26 09:30:42;;;;;;;;;0.00;0.00;;;;;19.10;42.45;100107.31;5045279;28;45267;-68
2022/09/26 09:33:13;;;;;;;;;1.33;1.33;;;;;19.46;41.99;100135.53;5026052;28;45676;-68
2022/09/26 09:36:05;;;;;;;;;1.00;1.00;;;;;19.38;41.79;100123.09;5038502;28;46592;-67
2022/09/26 09:38:34;;;;;;;;;1.00;1.00;;;;;19.36;41.77;100116.28;5044426;28;45777;-66
2022/09/26 09:41:07;;;;;;;;;2.00;2.00;;;;;19.29;42.54;100116.34;5048459;28;45361;-68
2022/09/26 09:43:47;;;;;;;;;1.00;1.00;;;;;19.01;42.57;100107.75;5050529;28;45478;-67
2022/09/26 09:46:27;;;;;;;;;1.33;1.33;;;;;18.68;42.86;100087.19;5057509;28;45315;-67
2022/09/26 09:49:20;;;;;;;;;1.00;1.00;;;;;18.66;42.96;100104.59;5045403;28;45498;-66
2022/09/26 09:51:59;;;;;;;;;1.00;1.00;;;;;18.55;43.08;100087.19;5026439;28;45332;-66
2022/09/26 09:54:55;;;;;;;;;1.33;1.33;;;;;18.33;43.22;100091.19;5046768;28;45465;-68
2022/09/26 09:57:38;;;;;;;;;2.33;2.33;;;;;18.31;43.55;100096.78;5045109;28;45875;-65
2022/09/26 10:00:26;;;;;;;;;0.33;0.33;;;;;18.20;43.83;100083.97;5042461;28;46242;-66
2022/09/26 10:03:04;;;;;;;;;1.33;1.33;;;;;18.14;43.85;100084.81;5031061;28;45542;-66
2022/09/26 10:05:45;;;;;;;;;2.00;1.67;;;;;18.17;44.09;100087.06;5035259;28;45538;-66
2022/09/26 10:08:27;;;;;;;;;0.33;0.33;;;;;18.15;43.83;100059.56;5052206;28;47871;-67
2022/09/26 10:11:30;;;;;;;;;1.33;1.33;;;;;18.08;44.39;100064.13;5027631;28;45988;-66
2022/09/26 10:14:02;;;;;;;;;1.00;1.00;;;;;18.06;44.33;100052.75;5038293;28;45434;-67
2022/09/26 10:16:29;;;;;;;;;2.00;2.00;;;;;17.97;44.57;100046.75;5036379;28;45479;-66
2022/09/26 10:19:02;;;;;;;;;1.00;1.00;;;;;17.75;44.92;100048.84;5036931;28;45739;-66
2022/09/26 10:21:34;;;;;;;;;1.00;1.00;;;;;17.54;45.25;100008.69;5037223;28;45358;-67
2022/09/26 10:24:01;;;;;;;;;1.00;1.00;;;;;17.69;45.24;100041.63;5037759;28;45336;-67
2022/09/26 10:26:34;;;;;;;;;2.00;2.00;;;;;17.53;45.69;100025.88;5037122;28;45490;-68
2022/09/26 10:29:06;;;;;;;;;0.67;0.67;;;;;17.54;46.14;100030.19;5038754;28;46045;-66
2022/09/26 10:31:36;;;;;;;;;1.33;1.33;;;;;17.54;46.56;100022.13;5038488;28;45458;-72
2022/09/26 10:34:05;;;;;;;;;1.00;1.00;;;;;17.31;46.51;100004.56;5038072;28;45512;-66
2022/09/26 10:36:34;;;;;;;;;0.00;0.00;;;;;17.32;46.78;100008.91;5052122;28;45510;-66
2022/09/26 10:41:59;;;;;;;;;0.00;0.00;;;;;17.30;48.34;99986.78;5036625;28;45501;-66
2022/09/26 10:44:27;;;;;;;;;3.00;1.00;;;;;17.34;49.65;99987.19;5035635;28;45424;-70
2022/09/26 10:46:57;;;;;;;;;0.67;0.67;;;;;17.25;49.21;99970.47;5033456;28;46692;-68
2022/09/26 10:49:39;;;;;;;;;0.33;0.33;;;;;17.46;49.23;99987.44;5033074;28;46965;-67
2022/09/26 10:52:25;;;;;;;;;4.00;4.00;;;;;17.43;48.89;99985.16;5033593;28;45360;-71
2022/09/26 10:55:06;;;;;;;;;1.00;1.00;;;;;17.46;49.13;99985.56;5051362;28;45490;-67
2022/09/26 10:57:44;;;;;;;;;1.00;1.00;;;;;17.41;49.21;99974.59;5036882;28;45511;-66
2022/09/26 11:00:18;;;;;;;;;1.00;1.00;;;;;17.25;49.20;99948.97;5037729;28;47667;-66
2022/09/26 11:02:46;;;;;;;;;1.67;1.67;;;;;16.91;49.34;99900.81;5039329;28;45526;-65
2022/09/26 11:08:04;;;;;;;;;1.00;1.00;;;;;16.88;49.77;99922.72;5052434;28;45372;-67
2022/09/26 11:10:33;;;;;;;;;1.00;1.00;;;;;17.07;51.47;99964.88;5052838;28;46613;-66
2022/09/26 11:13:15;;;;;;;;;2.67;1.00;;;;;16.93;53.09;99952.47;5060180;28;46281;-66
2022/09/26 11:15:52;;;;;;;;;2.33;2.00;;;;;16.97;53.61;99943.78;5037887;28;45308;-67
2022/09/26 11:18:41;;;;;;;;;2.67;2.00;;;;;17.01;53.56;99938.81;5043781;28;45301;-68
2022/09/26 11:21:51;;;;;;;;;1.00;1.00;;;;;16.94;53.70;99944.19;5008450;28;45803;-68
2022/09/26 11:24:44;;;;;;;;;0.00;0.00;;;;;16.97;54.33;99932.22;4983187;28;45385;-68
2022/09/26 11:27:23;;;;;;;;;1.67;1.67;;;;;16.93;54.60;99930.97;4972069;28;45545;-66
2022/09/26 11:29:52;;;;;;;;;1.00;1.00;;;;;16.83;55.48;99925.19;5027660;28;45391;-66
2022/09/26 11:32:39;;;;;;;;;1.00;1.00;;;;;16.73;56.79;99928.25;5035885;28;46752;-65
2022/09/26 11:35:07;;;;;;;;;1.67;1.67;;;;;16.69;57.17;99930.53;5044578;28;45459;-68
2022/09/26 11:38:04;;;;;;;;;1.00;1.00;;;;;16.65;57.55;99929.25;5036746;28;45597;-67
2022/09/26 11:40:35;;;;;;;;;1.00;1.00;;;;;16.60;58.56;99923.66;5038960;28;45503;-68
2022/09/26 11:43:21;;;;;;;;;2.00;1.00;;;;;16.50;59.01;99904.44;5044479;28;49104;-67
2022/09/26 11:45:53;;;;;;;;;2.00;2.00;;;;;16.02;60.18;99845.53;5031502;28;45555;-66
2022/09/26 11:49:00;;;;;;;;;5.67;4.33;;;;;16.27;61.34;99871.78;5036190;28;45417;-67
2022/09/26 11:51:34;;;;;;;;;2.00;1.00;;;;;16.20;62.28;99884.34;5011835;28;45561;-66
2022/09/26 11:54:22;;;;;;;;;4.33;2.00;;;;;15.93;63.47;99872.69;5044125;28;45919;-67
2022/09/26 11:57:07;;;;;;;;;1.67;1.67;;;;;15.92;64.16;99879.91;5040496;28;45387;-67
2022/09/26 11:59:57;;;;;;;;;1.33;1.00;;;;;15.08;64.31;99756.84;5037449;28;45471;-65
2022/09/26 12:02:31;;;;;;;;;2.00;2.00;;;;;15.66;64.91;99866.38;5048628;28;45311;-65
2022/09/26 12:05:13;;;;;;;;;0.33;0.33;;;;;15.10;65.90;99788.78;5041756;28;45950;-67
2022/09/26 12:07:57;;;;;;;;;2.00;2.00;;;;;15.46;65.96;99864.41;5037351;28;45501;-67
2022/09/26 12:10:40;;;;;;;;;4.00;4.00;;;;;14.77;66.65;99751.06;5041753;28;45300;-66